sensor_id;sensor_type;location;lat;lon;timestamp;P1;durP1;ratioP1;P2;durP2;ratioP2
57856;SDS011;43683;48.650;9.290;2023-03-13T00:01:26;7.68;;;3.80;;
57856;SDS011;43683;48.650;9.290;2023-03-13T00:03:53;10.93;;;4.30;;
57856;SDS011;43683;48.650;9.290;2023-03-13T00:06:19;11.27;;;4.43;;
57856;SDS011;43683;48.650;9.290;2023-03-13T00:08:46;6.82;;;3.97;;
57856;SDS011;43683;48.650;9.290;2023-03-13T00:11:13;6.88;;;3.90;;
57856;SDS011;43683;48.650;9.290;2023-03-13T00:13:39;9.43;;;3.92;;
57856;SDS011;43683;48.650;9.290;2023-03-13T00:16:06;8.02;;;3.88;;
57856;SDS011;43683;48.650;9.290;2023-03-13T00:18:34;7.50;;;3.58;;
57856;SDS011;43683;48.650;9.290;2023-03-13T00:21:00;6.57;;;3.38;;
57856;SDS011;43683;48.650;9.290;2023-03-13T00:23:31;4.10;;;2.80;;
57856;SDS011;43683;48.650;9.290;2023-03-13T00:25:57;6.50;;;3.38;;
57856;SDS011;43683;48.650;9.290;2023-03-13T00:28:29;9.30;;;3.65;;
57856;SDS011;43683;48.650;9.290;2023-03-13T00:31:00;8.43;;;3.38;;
57856;SDS011;43683;48.650;9.290;2023-03-13T00:33:33;9.82;;;3.53;;
57856;SDS011;43683;48.650;9.290;2023-03-13T00:36:04;4.85;;;2.95;;
57856;SDS011;43683;48.650;9.290;2023-03-13T00:38:31;5.97;;;3.75;;
57856;SDS011;43683;48.650;9.290;2023-03-13T00:41:07;6.32;;;3.00;;
57856;SDS011;43683;48.650;9.290;2023-03-13T00:43:37;6.43;;;3.35;;
57856;SDS011;43683;48.650;9.290;2023-03-13T00:46:04;7.95;;;3.40;;
57856;SDS011;43683;48.650;9.290;2023-03-13T00:48:29;9.88;;;3.50;;
57856;SDS011;43683;48.650;9.290;2023-03-13T00:50:57;4.68;;;2.60;;
57856;SDS011;43683;48.650;9.290;2023-03-13T00:53:23;6.80;;;3.33;;
57856;SDS011;43683;48.650;9.290;2023-03-13T00:55:58;6.72;;;3.30;;
57856;SDS011;43683;48.650;9.290;2023-03-13T00:58:26;6.32;;;3.03;;
57856;SDS011;43683;48.650;9.290;2023-03-13T01:00:54;6.20;;;3.10;;
57856;SDS011;43683;48.650;9.290;2023-03-13T01:03:20;8.82;;;3.13;;
57856;SDS011;43683;48.650;9.290;2023-03-13T01:05:54;4.40;;;3.08;;
57856;SDS011;43683;48.650;9.290;2023-03-13T01:08:24;7.20;;;3.10;;
57856;SDS011;43683;48.650;9.290;2023-03-13T01:10:56;6.50;;;3.20;;
57856;SDS011;43683;48.650;9.290;2023-03-13T01:13:26;6.15;;;2.78;;
57856;SDS011;43683;48.650;9.290;2023-03-13T01:15:52;6.60;;;3.67;;
57856;SDS011;43683;48.650;9.290;2023-03-13T01:18:18;6.65;;;3.05;;
57856;SDS011;43683;48.650;9.290;2023-03-13T01:20:43;6.43;;;2.67;;
57856;SDS011;43683;48.650;9.290;2023-03-13T01:23:09;5.57;;;2.80;;
57856;SDS011;43683;48.650;9.290;2023-03-13T01:25:35;9.68;;;3.33;;
57856;SDS011;43683;48.650;9.290;2023-03-13T01:28:02;7.78;;;2.88;;
57856;SDS011;43683;48.650;9.290;2023-03-13T01:30:28;7.75;;;3.10;;
57856;SDS011;43683;48.650;9.290;2023-03-13T01:32:53;7.40;;;3.38;;
57856;SDS011;43683;48.650;9.290;2023-03-13T01:35:19;5.28;;;3.13;;
57856;SDS011;43683;48.650;9.290;2023-03-13T01:37:44;6.40;;;3.25;;
57856;SDS011;43683;48.650;9.290;2023-03-13T01:40:10;6.35;;;3.15;;
57856;SDS011;43683;48.650;9.290;2023-03-13T01:42:52;6.88;;;3.20;;
57856;SDS011;43683;48.650;9.290;2023-03-13T01:48:17;5.20;;;2.83;;
57856;SDS011;43683;48.650;9.290;2023-03-13T01:50:44;6.32;;;2.90;;
57856;SDS011;43683;48.650;9.290;2023-03-13T01:53:09;4.90;;;2.42;;
57856;SDS011;43683;48.650;9.290;2023-03-13T01:55:35;5.07;;;2.60;;
57856;SDS011;43683;48.650;9.290;2023-03-13T01:58:01;6.07;;;2.30;;
57856;SDS011;43683;48.650;9.290;2023-03-13T02:00:28;5.95;;;2.25;;
57856;SDS011;43683;48.650;9.290;2023-03-13T02:02:57;4.70;;;2.30;;
57856;SDS011;43683;48.650;9.290;2023-03-13T02:05:27;4.80;;;2.22;;
57856;SDS011;43683;48.650;9.290;2023-03-13T02:08:02;3.05;;;1.80;;
57856;SDS011;43683;48.650;9.290;2023-03-13T02:10:33;5.17;;;1.90;;
57856;SDS011;43683;48.650;9.290;2023-03-13T02:13:03;5.07;;;1.95;;
57856;SDS011;43683;48.650;9.290;2023-03-13T02:15:29;4.72;;;1.88;;
57856;SDS011;43683;48.650;9.290;2023-03-13T02:17:55;7.53;;;1.88;;
57856;SDS011;43683;48.650;9.290;2023-03-13T02:20:21;4.22;;;2.72;;
57856;SDS011;43683;48.650;9.290;2023-03-13T02:23:06;5.78;;;1.88;;
57856;SDS011;43683;48.650;9.290;2023-03-13T02:25:44;5.45;;;2.15;;
57856;SDS011;43683;48.650;9.290;2023-03-13T02:28:12;4.57;;;1.85;;
57856;SDS011;43683;48.650;9.290;2023-03-13T02:30:43;5.93;;;1.90;;
57856;SDS011;43683;48.650;9.290;2023-03-13T02:33:12;4.32;;;2.00;;
57856;SDS011;43683;48.650;9.290;2023-03-13T02:35:39;3.60;;;1.70;;
57856;SDS011;43683;48.650;9.290;2023-03-13T02:38:08;4.78;;;2.40;;
57856;SDS011;43683;48.650;9.290;2023-03-13T02:40:40;3.70;;;1.70;;
57856;SDS011;43683;48.650;9.290;2023-03-13T02:43:10;5.75;;;1.65;;
57856;SDS011;43683;48.650;9.290;2023-03-13T02:45:42;5.55;;;1.60;;
57856;SDS011;43683;48.650;9.290;2023-03-13T02:48:30;3.00;;;1.60;;
57856;SDS011;43683;48.650;9.290;2023-03-13T02:51:02;5.03;;;1.70;;
57856;SDS011;43683;48.650;9.290;2023-03-13T02:53:33;3.15;;;1.40;;
57856;SDS011;43683;48.650;9.290;2023-03-13T02:55:59;5.15;;;1.70;;
57856;SDS011;43683;48.650;9.290;2023-03-13T02:58:25;4.47;;;1.70;;
57856;SDS011;43683;48.650;9.290;2023-03-13T03:00:51;5.60;;;1.80;;
57856;SDS011;43683;48.650;9.290;2023-03-13T03:03:17;3.05;;;1.58;;
57856;SDS011;43683;48.650;9.290;2023-03-13T03:05:42;2.95;;;1.40;;
57856;SDS011;43683;48.650;9.290;2023-03-13T03:08:08;5.80;;;1.52;;
57856;SDS011;43683;48.650;9.290;2023-03-13T03:10:34;2.50;;;1.42;;
57856;SDS011;43683;48.650;9.290;2023-03-13T03:13:01;6.97;;;1.58;;
57856;SDS011;43683;48.650;9.290;2023-03-13T03:15:26;2.47;;;1.42;;
57856;SDS011;43683;48.650;9.290;2023-03-13T03:17:52;3.33;;;1.30;;
57856;SDS011;43683;48.650;9.290;2023-03-13T03:20:17;2.72;;;1.27;;
57856;SDS011;43683;48.650;9.290;2023-03-13T03:22:43;2.38;;;1.27;;
57856;SDS011;43683;48.650;9.290;2023-03-13T03:25:08;2.88;;;1.60;;
57856;SDS011;43683;48.650;9.290;2023-03-13T03:27:34;3.22;;;1.30;;
57856;SDS011;43683;48.650;9.290;2023-03-13T03:30:00;2.53;;;1.35;;
57856;SDS011;43683;48.650;9.290;2023-03-13T03:32:26;2.78;;;1.23;;
57856;SDS011;43683;48.650;9.290;2023-03-13T03:34:52;2.22;;;1.38;;
57856;SDS011;43683;48.650;9.290;2023-03-13T03:37:17;2.63;;;1.38;;
57856;SDS011;43683;48.650;9.290;2023-03-13T03:39:43;4.22;;;1.20;;
57856;SDS011;43683;48.650;9.290;2023-03-13T03:42:08;2.65;;;1.30;;
57856;SDS011;43683;48.650;9.290;2023-03-13T03:44:34;3.72;;;1.10;;
57856;SDS011;43683;48.650;9.290;2023-03-13T03:46:59;3.25;;;1.35;;
57856;SDS011;43683;48.650;9.290;2023-03-13T03:49:25;4.50;;;1.30;;
57856;SDS011;43683;48.650;9.290;2023-03-13T03:51:50;2.13;;;1.30;;
57856;SDS011;43683;48.650;9.290;2023-03-13T03:54:16;1.90;;;1.00;;
57856;SDS011;43683;48.650;9.290;2023-03-13T03:56:41;0.90;;;0.90;;
57856;SDS011;43683;48.650;9.290;2023-03-13T03:59:07;4.47;;;1.10;;
57856;SDS011;43683;48.650;9.290;2023-03-13T04:01:32;2.53;;;0.90;;
57856;SDS011;43683;48.650;9.290;2023-03-13T04:03:58;1.92;;;1.00;;
57856;SDS011;43683;48.650;9.290;2023-03-13T04:06:24;0.90;;;0.90;;
57856;SDS011;43683;48.650;9.290;2023-03-13T04:08:49;2.30;;;1.30;;
57856;SDS011;43683;48.650;9.290;2023-03-13T04:11:15;1.23;;;1.13;;
57856;SDS011;43683;48.650;9.290;2023-03-13T04:13:40;0.82;;;0.82;;
57856;SDS011;43683;48.650;9.290;2023-03-13T04:16:08;2.47;;;0.93;;
57856;SDS011;43683;48.650;9.290;2023-03-13T04:18:34;1.05;;;0.90;;
57856;SDS011;43683;48.650;9.290;2023-03-13T04:21:00;3.35;;;1.40;;
57856;SDS011;43683;48.650;9.290;2023-03-13T04:23:26;2.87;;;1.20;;
57856;SDS011;43683;48.650;9.290;2023-03-13T04:25:52;1.52;;;1.20;;
57856;SDS011;43683;48.650;9.290;2023-03-13T04:28:18;1.30;;;1.20;;
57856;SDS011;43683;48.650;9.290;2023-03-13T04:30:43;2.63;;;1.05;;
57856;SDS011;43683;48.650;9.290;2023-03-13T04:33:08;2.03;;;1.20;;
57856;SDS011;43683;48.650;9.290;2023-03-13T04:35:34;2.45;;;1.70;;
57856;SDS011;43683;48.650;9.290;2023-03-13T04:37:59;1.30;;;1.20;;
57856;SDS011;43683;48.650;9.290;2023-03-13T04:40:26;2.95;;;1.02;;
57856;SDS011;43683;48.650;9.290;2023-03-13T04:42:52;1.05;;;0.98;;
57856;SDS011;43683;48.650;9.290;2023-03-13T04:45:17;2.80;;;1.00;;
57856;SDS011;43683;48.650;9.290;2023-03-13T04:47:44;2.47;;;1.10;;
57856;SDS011;43683;48.650;9.290;2023-03-13T04:50:10;3.35;;;1.30;;
57856;SDS011;43683;48.650;9.290;2023-03-13T04:52:36;1.98;;;1.08;;
57856;SDS011;43683;48.650;9.290;2023-03-13T04:55:02;1.05;;;0.90;;
57856;SDS011;43683;48.650;9.290;2023-03-13T04:57:28;0.95;;;0.95;;
57856;SDS011;43683;48.650;9.290;2023-03-13T04:59:53;1.65;;;1.10;;
57856;SDS011;43683;48.650;9.290;2023-03-13T05:02:19;3.67;;;1.60;;
57856;SDS011;43683;48.650;9.290;2023-03-13T05:04:44;1.58;;;1.00;;
57856;SDS011;43683;48.650;9.290;2023-03-13T05:07:10;1.48;;;1.00;;
57856;SDS011;43683;48.650;9.290;2023-03-13T05:09:35;2.15;;;0.90;;
57856;SDS011;43683;48.650;9.290;2023-03-13T05:12:00;1.00;;;0.90;;
57856;SDS011;43683;48.650;9.290;2023-03-13T05:14:26;1.42;;;1.00;;
57856;SDS011;43683;48.650;9.290;2023-03-13T05:16:51;1.85;;;0.90;;
57856;SDS011;43683;48.650;9.290;2023-03-13T05:19:17;1.48;;;0.90;;
57856;SDS011;43683;48.650;9.290;2023-03-13T05:21:42;1.65;;;0.93;;
57856;SDS011;43683;48.650;9.290;2023-03-13T05:24:08;1.63;;;1.10;;
57856;SDS011;43683;48.650;9.290;2023-03-13T05:26:33;2.45;;;0.98;;
57856;SDS011;43683;48.650;9.290;2023-03-13T05:28:59;1.60;;;0.77;;
57856;SDS011;43683;48.650;9.290;2023-03-13T05:31:24;1.60;;;0.90;;
57856;SDS011;43683;48.650;9.290;2023-03-13T05:33:50;0.88;;;0.85;;
57856;SDS011;43683;48.650;9.290;2023-03-13T05:36:16;1.08;;;0.90;;
57856;SDS011;43683;48.650;9.290;2023-03-13T05:38:41;2.22;;;0.90;;
57856;SDS011;43683;48.650;9.290;2023-03-13T05:41:06;4.00;;;1.00;;
57856;SDS011;43683;48.650;9.290;2023-03-13T05:43:32;1.75;;;0.90;;
57856;SDS011;43683;48.650;9.290;2023-03-13T05:45:57;0.80;;;0.80;;
57856;SDS011;43683;48.650;9.290;2023-03-13T05:48:23;0.77;;;0.70;;
57856;SDS011;43683;48.650;9.290;2023-03-13T05:50:48;1.00;;;0.80;;
57856;SDS011;43683;48.650;9.290;2023-03-13T05:53:14;1.75;;;1.10;;
57856;SDS011;43683;48.650;9.290;2023-03-13T05:55:39;2.50;;;1.08;;
57856;SDS011;43683;48.650;9.290;2023-03-13T05:58:06;3.07;;;1.30;;
57856;SDS011;43683;48.650;9.290;2023-03-13T06:00:32;2.17;;;1.15;;
57856;SDS011;43683;48.650;9.290;2023-03-13T06:02:57;1.83;;;0.85;;
57856;SDS011;43683;48.650;9.290;2023-03-13T06:05:23;1.17;;;0.77;;
57856;SDS011;43683;48.650;9.290;2023-03-13T06:07:49;4.13;;;0.90;;
57856;SDS011;43683;48.650;9.290;2023-03-13T06:10:14;1.30;;;1.20;;
57856;SDS011;43683;48.650;9.290;2023-03-13T06:12:40;1.00;;;0.90;;
57856;SDS011;43683;48.650;9.290;2023-03-13T06:15:06;1.98;;;1.10;;
57856;SDS011;43683;48.650;9.290;2023-03-13T06:17:33;1.17;;;1.08;;
57856;SDS011;43683;48.650;9.290;2023-03-13T06:19:59;2.45;;;1.00;;
57856;SDS011;43683;48.650;9.290;2023-03-13T06:22:24;2.53;;;1.00;;
57856;SDS011;43683;48.650;9.290;2023-03-13T06:24:50;1.00;;;0.90;;
57856;SDS011;43683;48.650;9.290;2023-03-13T06:27:15;3.15;;;0.90;;
57856;SDS011;43683;48.650;9.290;2023-03-13T06:29:41;2.08;;;1.33;;
57856;SDS011;43683;48.650;9.290;2023-03-13T06:32:07;2.88;;;0.70;;
57856;SDS011;43683;48.650;9.290;2023-03-13T06:34:32;1.58;;;0.90;;
57856;SDS011;43683;48.650;9.290;2023-03-13T06:36:58;3.00;;;1.10;;
57856;SDS011;43683;48.650;9.290;2023-03-13T06:39:24;1.75;;;0.80;;
57856;SDS011;43683;48.650;9.290;2023-03-13T06:41:50;0.80;;;0.80;;
57856;SDS011;43683;48.650;9.290;2023-03-13T06:44:15;1.40;;;0.90;;
57856;SDS011;43683;48.650;9.290;2023-03-13T06:46:41;0.98;;;0.90;;
57856;SDS011;43683;48.650;9.290;2023-03-13T06:49:06;1.23;;;0.80;;
57856;SDS011;43683;48.650;9.290;2023-03-13T06:51:32;1.25;;;0.77;;
57856;SDS011;43683;48.650;9.290;2023-03-13T06:53:57;1.17;;;0.82;;
57856;SDS011;43683;48.650;9.290;2023-03-13T06:56:23;1.10;;;1.00;;
57856;SDS011;43683;48.650;9.290;2023-03-13T06:58:48;3.00;;;1.00;;
57856;SDS011;43683;48.650;9.290;2023-03-13T07:01:15;2.10;;;0.90;;
57856;SDS011;43683;48.650;9.290;2023-03-13T07:03:42;0.80;;;0.80;;
57856;SDS011;43683;48.650;9.290;2023-03-13T07:06:09;1.90;;;1.40;;
57856;SDS011;43683;48.650;9.290;2023-03-13T07:08:35;0.73;;;0.70;;
57856;SDS011;43683;48.650;9.290;2023-03-13T07:11:05;1.50;;;0.70;;
57856;SDS011;43683;48.650;9.290;2023-03-13T07:13:32;0.95;;;0.70;;
57856;SDS011;43683;48.650;9.290;2023-03-13T07:15:59;0.60;;;0.60;;
57856;SDS011;43683;48.650;9.290;2023-03-13T07:18:25;0.70;;;0.70;;
57856;SDS011;43683;48.650;9.290;2023-03-13T07:20:54;0.55;;;0.55;;
57856;SDS011;43683;48.650;9.290;2023-03-13T07:23:21;0.70;;;0.57;;
57856;SDS011;43683;48.650;9.290;2023-03-13T07:25:54;1.67;;;0.80;;
57856;SDS011;43683;48.650;9.290;2023-03-13T07:28:21;1.92;;;0.80;;
57856;SDS011;43683;48.650;9.290;2023-03-13T07:30:47;0.60;;;0.60;;
57856;SDS011;43683;48.650;9.290;2023-03-13T07:33:13;1.52;;;0.73;;
57856;SDS011;43683;48.650;9.290;2023-03-13T07:35:39;0.60;;;0.60;;
57856;SDS011;43683;48.650;9.290;2023-03-13T07:38:05;1.13;;;0.88;;
57856;SDS011;43683;48.650;9.290;2023-03-13T07:40:30;1.08;;;0.80;;
57856;SDS011;43683;48.650;9.290;2023-03-13T07:42:56;1.67;;;0.77;;
57856;SDS011;43683;48.650;9.290;2023-03-13T07:45:21;2.13;;;0.70;;
57856;SDS011;43683;48.650;9.290;2023-03-13T07:47:47;1.33;;;0.90;;
57856;SDS011;43683;48.650;9.290;2023-03-13T07:50:12;1.42;;;0.70;;
57856;SDS011;43683;48.650;9.290;2023-03-13T07:52:38;0.90;;;0.70;;
57856;SDS011;43683;48.650;9.290;2023-03-13T07:55:03;1.05;;;0.70;;
57856;SDS011;43683;48.650;9.290;2023-03-13T07:57:29;0.90;;;0.82;;
57856;SDS011;43683;48.650;9.290;2023-03-13T07:59:55;0.88;;;0.82;;
57856;SDS011;43683;48.650;9.290;2023-03-13T08:02:20;1.40;;;0.80;;
57856;SDS011;43683;48.650;9.290;2023-03-13T08:04:46;1.00;;;0.82;;
57856;SDS011;43683;48.650;9.290;2023-03-13T08:07:15;1.80;;;0.75;;
57856;SDS011;43683;48.650;9.290;2023-03-13T08:09:40;0.75;;;0.75;;
57856;SDS011;43683;48.650;9.290;2023-03-13T08:12:06;0.65;;;0.65;;
57856;SDS011;43683;48.650;9.290;2023-03-13T08:14:32;0.70;;;0.70;;
57856;SDS011;43683;48.650;9.290;2023-03-13T08:16:57;1.30;;;0.80;;
57856;SDS011;43683;48.650;9.290;2023-03-13T08:19:23;0.65;;;0.65;;
57856;SDS011;43683;48.650;9.290;2023-03-13T08:21:48;0.77;;;0.77;;
57856;SDS011;43683;48.650;9.290;2023-03-13T08:24:14;1.55;;;0.90;;
57856;SDS011;43683;48.650;9.290;2023-03-13T08:26:40;1.20;;;0.90;;
57856;SDS011;43683;48.650;9.290;2023-03-13T08:29:07;1.77;;;0.98;;
57856;SDS011;43683;48.650;9.290;2023-03-13T08:31:40;1.00;;;0.70;;
57856;SDS011;43683;48.650;9.290;2023-03-13T08:34:11;1.45;;;0.88;;
57856;SDS011;43683;48.650;9.290;2023-03-13T08:36:37;0.60;;;0.60;;
57856;SDS011;43683;48.650;9.290;2023-03-13T08:39:04;1.25;;;0.80;;
57856;SDS011;43683;48.650;9.290;2023-03-13T08:41:35;1.38;;;0.77;;
57856;SDS011;43683;48.650;9.290;2023-03-13T08:44:02;1.02;;;0.68;;
57856;SDS011;43683;48.650;9.290;2023-03-13T08:46:29;1.00;;;0.70;;
57856;SDS011;43683;48.650;9.290;2023-03-13T08:48:56;0.70;;;0.70;;
57856;SDS011;43683;48.650;9.290;2023-03-13T08:51:23;1.70;;;0.65;;
57856;SDS011;43683;48.650;9.290;2023-03-13T08:53:50;0.90;;;0.70;;
57856;SDS011;43683;48.650;9.290;2023-03-13T08:56:17;2.08;;;0.82;;
57856;SDS011;43683;48.650;9.290;2023-03-13T08:58:48;0.73;;;0.63;;
57856;SDS011;43683;48.650;9.290;2023-03-13T09:01:15;0.50;;;0.50;;
57856;SDS011;43683;48.650;9.290;2023-03-13T09:03:40;1.05;;;0.73;;
57856;SDS011;43683;48.650;9.290;2023-03-13T09:06:07;0.80;;;0.77;;
57856;SDS011;43683;48.650;9.290;2023-03-13T09:08:34;0.75;;;0.73;;
57856;SDS011;43683;48.650;9.290;2023-03-13T09:11:01;0.77;;;0.73;;
57856;SDS011;43683;48.650;9.290;2023-03-13T09:13:29;0.60;;;0.60;;
57856;SDS011;43683;48.650;9.290;2023-03-13T09:15:57;1.13;;;0.90;;
57856;SDS011;43683;48.650;9.290;2023-03-13T09:18:24;0.65;;;0.65;;
57856;SDS011;43683;48.650;9.290;2023-03-13T09:20:50;0.65;;;0.60;;
57856;SDS011;43683;48.650;9.290;2023-03-13T09:23:15;0.85;;;0.63;;
57856;SDS011;43683;48.650;9.290;2023-03-13T09:25:41;3.30;;;0.80;;
57856;SDS011;43683;48.650;9.290;2023-03-13T09:28:07;1.15;;;0.80;;
57856;SDS011;43683;48.650;9.290;2023-03-13T09:30:32;0.70;;;0.70;;
57856;SDS011;43683;48.650;9.290;2023-03-13T09:32:58;1.42;;;0.68;;
57856;SDS011;43683;48.650;9.290;2023-03-13T09:35:23;0.90;;;0.90;;
57856;SDS011;43683;48.650;9.290;2023-03-13T09:37:49;2.00;;;0.82;;
57856;SDS011;43683;48.650;9.290;2023-03-13T09:40:16;2.85;;;0.70;;
57856;SDS011;43683;48.650;9.290;2023-03-13T09:42:48;0.68;;;0.68;;
57856;SDS011;43683;48.650;9.290;2023-03-13T09:45:29;0.75;;;0.75;;
57856;SDS011;43683;48.650;9.290;2023-03-13T09:48:09;1.50;;;0.80;;
57856;SDS011;43683;48.650;9.290;2023-03-13T09:50:45;0.85;;;0.73;;
57856;SDS011;43683;48.650;9.290;2023-03-13T09:53:26;1.23;;;0.70;;
57856;SDS011;43683;48.650;9.290;2023-03-13T09:55:59;0.98;;;0.73;;
57856;SDS011;43683;48.650;9.290;2023-03-13T09:58:29;0.98;;;0.80;;
57856;SDS011;43683;48.650;9.290;2023-03-13T10:01:02;1.80;;;0.90;;
57856;SDS011;43683;48.650;9.290;2023-03-13T10:03:29;1.02;;;0.98;;
57856;SDS011;43683;48.650;9.290;2023-03-13T10:06:09;2.45;;;0.60;;
57856;SDS011;43683;48.650;9.290;2023-03-13T10:08:42;1.23;;;0.80;;
57856;SDS011;43683;48.650;9.290;2023-03-13T10:11:13;2.55;;;0.73;;
57856;SDS011;43683;48.650;9.290;2023-03-13T10:13:52;0.73;;;0.73;;
57856;SDS011;43683;48.650;9.290;2023-03-13T10:18:59;3.65;;;0.75;;
57856;SDS011;43683;48.650;9.290;2023-03-13T10:21:36;0.85;;;0.80;;
57856;SDS011;43683;48.650;9.290;2023-03-13T10:24:04;2.42;;;0.90;;
57856;SDS011;43683;48.650;9.290;2023-03-13T10:26:34;0.70;;;0.70;;
57856;SDS011;43683;48.650;9.290;2023-03-13T10:29:13;1.67;;;1.00;;
57856;SDS011;43683;48.650;9.290;2023-03-13T10:31:58;0.85;;;0.70;;
57856;SDS011;43683;48.650;9.290;2023-03-13T10:34:25;0.80;;;0.80;;
57856;SDS011;43683;48.650;9.290;2023-03-13T10:37:10;1.08;;;0.80;;
57856;SDS011;43683;48.650;9.290;2023-03-13T10:39:38;1.00;;;0.90;;
57856;SDS011;43683;48.650;9.290;2023-03-13T10:42:07;2.03;;;1.05;;
57856;SDS011;43683;48.650;9.290;2023-03-13T10:44:48;5.05;;;1.80;;
57856;SDS011;43683;48.650;9.290;2023-03-13T10:47:14;1.88;;;1.00;;
57856;SDS011;43683;48.650;9.290;2023-03-13T10:49:50;1.38;;;0.85;;
57856;SDS011;43683;48.650;9.290;2023-03-13T10:52:29;2.80;;;1.10;;
57856;SDS011;43683;48.650;9.290;2023-03-13T10:55:04;0.98;;;0.73;;
57856;SDS011;43683;48.650;9.290;2023-03-13T10:57:32;1.50;;;1.00;;
57856;SDS011;43683;48.650;9.290;2023-03-13T11:00:00;1.95;;;1.35;;
57856;SDS011;43683;48.650;9.290;2023-03-13T11:02:47;1.02;;;0.80;;
57856;SDS011;43683;48.650;9.290;2023-03-13T11:07:47;1.65;;;0.90;;
57856;SDS011;43683;48.650;9.290;2023-03-13T11:12:49;2.85;;;0.93;;
57856;SDS011;43683;48.650;9.290;2023-03-13T11:15:22;2.33;;;1.10;;
57856;SDS011;43683;48.650;9.290;2023-03-13T11:18:04;0.80;;;0.68;;
57856;SDS011;43683;48.650;9.290;2023-03-13T11:20:37;2.53;;;1.15;;
57856;SDS011;43683;48.650;9.290;2023-03-13T11:25:57;2.20;;;0.95;;
57856;SDS011;43683;48.650;9.290;2023-03-13T11:31:28;0.88;;;0.70;;
57856;SDS011;43683;48.650;9.290;2023-03-13T11:34:13;1.42;;;1.10;;
57856;SDS011;43683;48.650;9.290;2023-03-13T11:37:04;2.55;;;0.90;;
57856;SDS011;43683;48.650;9.290;2023-03-13T11:48:18;1.77;;;1.20;;
57856;SDS011;43683;48.650;9.290;2023-03-13T11:50:57;1.10;;;0.93;;
57856;SDS011;43683;48.650;9.290;2023-03-13T11:56:14;1.30;;;0.75;;
57856;SDS011;43683;48.650;9.290;2023-03-13T12:01:37;0.70;;;0.68;;
57856;SDS011;43683;48.650;9.290;2023-03-13T12:04:40;1.77;;;0.77;;
57856;SDS011;43683;48.650;9.290;2023-03-13T12:10:01;1.10;;;0.80;;
57856;SDS011;43683;48.650;9.290;2023-03-13T12:15:19;1.65;;;0.90;;
57856;SDS011;43683;48.650;9.290;2023-03-13T12:17:50;1.13;;;0.77;;
57856;SDS011;43683;48.650;9.290;2023-03-13T12:23:10;3.08;;;1.20;;
57856;SDS011;43683;48.650;9.290;2023-03-13T12:25:52;1.58;;;1.02;;
57856;SDS011;43683;48.650;9.290;2023-03-13T12:28:24;1.35;;;0.80;;
57856;SDS011;43683;48.650;9.290;2023-03-13T12:33:42;2.38;;;0.93;;
57856;SDS011;43683;48.650;9.290;2023-03-13T12:44:31;1.75;;;0.88;;
57856;SDS011;43683;48.650;9.290;2023-03-13T12:49:45;1.90;;;0.80;;
57856;SDS011;43683;48.650;9.290;2023-03-13T12:58:04;1.27;;;0.80;;
57856;SDS011;43683;48.650;9.290;2023-03-13T13:00:37;2.60;;;0.80;;
57856;SDS011;43683;48.650;9.290;2023-03-13T13:08:27;4.57;;;0.90;;
57856;SDS011;43683;48.650;9.290;2023-03-13T13:16:35;2.63;;;0.88;;
57856;SDS011;43683;48.650;9.290;2023-03-13T13:37:49;1.48;;;0.80;;
57856;SDS011;43683;48.650;9.290;2023-03-13T13:42:56;3.40;;;1.02;;
57856;SDS011;43683;48.650;9.290;2023-03-13T13:47:49;1.30;;;0.90;;
57856;SDS011;43683;48.650;9.290;2023-03-13T13:50:20;2.78;;;1.00;;
57856;SDS011;43683;48.650;9.290;2023-03-13T13:52:48;1.75;;;0.77;;
57856;SDS011;43683;48.650;9.290;2023-03-13T13:55:29;3.38;;;1.10;;
57856;SDS011;43683;48.650;9.290;2023-03-13T13:58:20;1.67;;;0.90;;
57856;SDS011;43683;48.650;9.290;2023-03-13T14:00:52;1.50;;;0.82;;
57856;SDS011;43683;48.650;9.290;2023-03-13T14:03:26;2.03;;;0.90;;
57856;SDS011;43683;48.650;9.290;2023-03-13T14:06:11;1.67;;;0.80;;
57856;SDS011;43683;48.650;9.290;2023-03-13T14:08:41;1.85;;;0.80;;
57856;SDS011;43683;48.650;9.290;2023-03-13T14:11:25;0.85;;;0.82;;
57856;SDS011;43683;48.650;9.290;2023-03-13T14:14:07;1.88;;;0.88;;
57856;SDS011;43683;48.650;9.290;2023-03-13T14:16:53;1.60;;;0.90;;
57856;SDS011;43683;48.650;9.290;2023-03-13T14:19:24;1.52;;;0.65;;
57856;SDS011;43683;48.650;9.290;2023-03-13T14:21:59;1.27;;;0.80;;
57856;SDS011;43683;48.650;9.290;2023-03-13T14:24:26;1.73;;;0.90;;
57856;SDS011;43683;48.650;9.290;2023-03-13T14:26:52;0.80;;;0.77;;
57856;SDS011;43683;48.650;9.290;2023-03-13T14:29:18;2.60;;;0.82;;
57856;SDS011;43683;48.650;9.290;2023-03-13T14:31:50;1.92;;;1.13;;
57856;SDS011;43683;48.650;9.290;2023-03-13T14:34:20;1.90;;;0.98;;
57856;SDS011;43683;48.650;9.290;2023-03-13T14:36:53;1.03;;;0.67;;
57856;SDS011;43683;48.650;9.290;2023-03-13T14:42:01;2.10;;;0.70;;
57856;SDS011;43683;48.650;9.290;2023-03-13T14:44:34;0.63;;;0.63;;
57856;SDS011;43683;48.650;9.290;2023-03-13T14:47:04;0.60;;;0.60;;
57856;SDS011;43683;48.650;9.290;2023-03-13T14:49:44;0.50;;;0.50;;
57856;SDS011;43683;48.650;9.290;2023-03-13T14:52:19;1.50;;;0.90;;
57856;SDS011;43683;48.650;9.290;2023-03-13T14:55:11;10.98;;;1.98;;
57856;SDS011;43683;48.650;9.290;2023-03-13T14:57:54;0.90;;;0.55;;
57856;SDS011;43683;48.650;9.290;2023-03-13T15:00:38;2.60;;;0.80;;
57856;SDS011;43683;48.650;9.290;2023-03-13T15:03:41;2.13;;;0.73;;
57856;SDS011;43683;48.650;9.290;2023-03-13T15:06:02;2.97;;;1.10;;
57856;SDS011;43683;48.650;9.290;2023-03-13T15:08:37;3.83;;;1.13;;
57856;SDS011;43683;48.650;9.290;2023-03-13T15:11:17;2.22;;;0.75;;
57856;SDS011;43683;48.650;9.290;2023-03-13T15:13:42;2.38;;;1.35;;
57856;SDS011;43683;48.650;9.290;2023-03-13T15:16:15;1.35;;;0.88;;
57856;SDS011;43683;48.650;9.290;2023-03-13T15:18:44;1.90;;;1.00;;
57856;SDS011;43683;48.650;9.290;2023-03-13T15:23:40;2.33;;;0.90;;
57856;SDS011;43683;48.650;9.290;2023-03-13T15:26:13;2.30;;;0.80;;
57856;SDS011;43683;48.650;9.290;2023-03-13T15:28:39;1.67;;;0.90;;
57856;SDS011;43683;48.650;9.290;2023-03-13T15:31:04;2.90;;;1.30;;
57856;SDS011;43683;48.650;9.290;2023-03-13T15:33:30;1.88;;;1.17;;
57856;SDS011;43683;48.650;9.290;2023-03-13T15:35:56;1.90;;;1.05;;
57856;SDS011;43683;48.650;9.290;2023-03-13T15:38:22;1.30;;;0.90;;
57856;SDS011;43683;48.650;9.290;2023-03-13T15:40:49;3.30;;;1.00;;
57856;SDS011;43683;48.650;9.290;2023-03-13T15:43:15;2.10;;;0.90;;
57856;SDS011;43683;48.650;9.290;2023-03-13T15:45:42;2.72;;;0.80;;
57856;SDS011;43683;48.650;9.290;2023-03-13T15:50:37;4.22;;;1.00;;
57856;SDS011;43683;48.650;9.290;2023-03-13T15:53:05;1.35;;;0.80;;
57856;SDS011;43683;48.650;9.290;2023-03-13T15:55:51;1.40;;;0.80;;
57856;SDS011;43683;48.650;9.290;2023-03-13T15:58:17;3.70;;;1.13;;
57856;SDS011;43683;48.650;9.290;2023-03-13T16:00:43;1.42;;;0.63;;
57856;SDS011;43683;48.650;9.290;2023-03-13T16:03:16;1.35;;;0.90;;
57856;SDS011;43683;48.650;9.290;2023-03-13T16:05:47;2.80;;;0.93;;
57856;SDS011;43683;48.650;9.290;2023-03-13T16:08:16;3.70;;;0.75;;
57856;SDS011;43683;48.650;9.290;2023-03-13T16:10:43;2.92;;;0.80;;
57856;SDS011;43683;48.650;9.290;2023-03-13T16:13:09;3.50;;;0.80;;
57856;SDS011;43683;48.650;9.290;2023-03-13T16:15:35;2.15;;;0.55;;
57856;SDS011;43683;48.650;9.290;2023-03-13T16:18:01;1.20;;;0.82;;
57856;SDS011;43683;48.650;9.290;2023-03-13T16:20:29;1.70;;;0.68;;
57856;SDS011;43683;48.650;9.290;2023-03-13T16:22:55;0.50;;;0.50;;
57856;SDS011;43683;48.650;9.290;2023-03-13T16:25:21;2.50;;;0.77;;
57856;SDS011;43683;48.650;9.290;2023-03-13T16:27:47;1.38;;;0.50;;
57856;SDS011;43683;48.650;9.290;2023-03-13T16:30:17;3.15;;;0.80;;
57856;SDS011;43683;48.650;9.290;2023-03-13T16:32:48;2.47;;;0.80;;
57856;SDS011;43683;48.650;9.290;2023-03-13T16:35:14;0.60;;;0.60;;
57856;SDS011;43683;48.650;9.290;2023-03-13T16:37:40;0.75;;;0.75;;
57856;SDS011;43683;48.650;9.290;2023-03-13T16:42:42;0.60;;;0.60;;